Startpagina
METAR-TAF:

METAR-TAF

Vliegvelden :

Flughafen Hannover-Langenhagen

Hannover, Duitsland

breedte: 52-28N, lengte: 009-41E, hoogte: 56 m

Actueel weer

Dit bericht is 18 minuten geleden gemaakt, om 15:50 UTC
Wind 7 kt uit het westen, variërend tussen het westzuidwesten en het noordwesten
Temperatuur 21°C
Vochtigheid 43%
Druk 1022 hPa
Zicht 10 km of meer
geen wolken onder 1500 m en geen cumulonimbus

METAR: EDDV 201550Z 27007KT 240V310 CAVOK 21/08 Q1022 NOSIG

Tijdstip: 18:08 (16:08 UTC)

Verwachting

Dit bericht is 5 uur en het 8 minuten geleden gemaakt, om 11:00 UTC
Verwachting geldig van 20 om 12 UTC tot 21 om 12 UTC
Wind 9 kt uit het westen
Zicht 10 km of meer
Weinig wolken op 4000 ft
Wijzigt naar
van 20 om 16 UTC tot 20 om 18 UTC
Wind 4 kt uit het westen

TAF: EDDV 201100Z 2012/2112 26009KT 9999 FEW040 BECMG 2016/2018 26004KT

Waarnemingen en weersverwachtingen van meer dan 4000 vliegvelden (METAR en TAF).

De beschikbare stations zijn de gele en rode punten op de kaart.

Ga met uw muis naar het station om de naam te zien.

Klik dan om waarnemingen en weersverwachtingen te zien.

kaart wijzigen: klik op de groene knoppen met een zwart kruis om in te zoomen, op de groene knop met een streepje om uit te zoomen of op de groene pijlen voor aangrenzende kaarten.


METAR-TAF: